Time;durP1;ratioP1;P1;durP2;ratioP2;P2;SDS_P1;SDS_P2;PMS_P1;PMS_P2;Temp;Humidity;BMP_temperature;BMP_pressure;BME280_temperature;BME280_humidity;BME280_pressure;Samples;Min_cycle;Max_cycle;Signal;HPM_P1;HPM_P2
2022/03/13 00:01:57;;;;;;;22.00;12.48;;;;;;;;;;6213771;23;20448;-69
2022/03/13 00:04:24;;;;;;;22.95;13.50;;;;;;;;;;6240871;23;20016;-68
2022/03/13 00:06:50;;;;;;;16.00;12.30;;;;;;;;;;6214015;23;20019;-68
2022/03/13 00:09:19;;;;;;;25.92;15.77;;;;;;;;;;6240573;23;20008;-68
2022/03/13 00:11:45;;;;;;;23.65;14.13;;;;;;;;;;6241003;23;20016;-69
2022/03/13 00:14:13;;;;;;;27.42;15.15;;;;;;;;;;6240870;23;20032;-69
2022/03/13 00:16:40;;;;;;;17.77;12.85;;;;;;;;;;6240431;23;20016;-68
2022/03/13 00:19:07;;;;;;;27.85;14.60;;;;;;;;;;6240500;23;20019;-68
2022/03/13 00:21:35;;;;;;;18.95;13.15;;;;;;;;;;6213550;23;20074;-67
2022/03/13 00:24:01;;;;;;;28.55;14.93;;;;;;;;;;6241389;23;20089;-68
2022/03/13 00:26:27;;;;;;;25.92;13.13;;;;;;;;;;6214243;23;20015;-68
2022/03/13 00:28:52;;;;;;;18.90;12.60;;;;;;;;;;6214478;23;20015;-67
2022/03/13 00:31:19;;;;;;;29.98;12.77;;;;;;;;;;6240772;23;20355;-67
2022/03/13 00:33:44;;;;;;;24.55;11.90;;;;;;;;;;6238626;23;20134;-68
2022/03/13 00:36:10;;;;;;;31.08;13.82;;;;;;;;;;6238269;23;20020;-68
2022/03/13 00:38:36;;;;;;;28.52;12.05;;;;;;;;;;6238741;23;20008;-69
2022/03/13 00:41:04;;;;;;;35.15;13.18;;;;;;;;;;6238085;23;20019;-68
2022/03/13 00:43:30;;;;;;;47.28;17.60;;;;;;;;;;6239216;23;20077;-67
2022/03/13 00:45:56;;;;;;;15.88;9.82;;;;;;;;;;6239423;23;20048;-68
2022/03/13 00:48:22;;;;;;;11.27;8.88;;;;;;;;;;6241465;23;20012;-68
2022/03/13 00:50:48;;;;;;;10.85;9.45;;;;;;;;;;6241124;23;20019;-69
2022/03/13 00:53:14;;;;;;;9.48;6.70;;;;;;;;;;6241011;23;20012;-68
2022/03/13 00:55:40;;;;;;;13.60;11.35;;;;;;;;;;6240951;23;20066;-69
2022/03/13 00:58:05;;;;;;;14.75;9.93;;;;;;;;;;6212975;23;20118;-68
2022/03/13 01:00:31;;;;;;;12.20;8.60;;;;;;;;;;6213116;23;20019;-68
2022/03/13 01:02:57;;;;;;;10.95;7.40;;;;;;;;;;6213659;23;20019;-68
2022/03/13 01:05:23;;;;;;;14.57;7.28;;;;;;;;;;6213811;23;20337;-68
2022/03/13 01:07:52;;;;;;;11.88;10.60;;;;;;;;;;6240729;23;20353;-68
2022/03/13 01:10:18;;;;;;;15.82;12.98;;;;;;;;;;6240590;23;20767;-69
2022/03/13 01:12:45;;;;;;;11.63;9.18;;;;;;;;;;6240555;23;20016;-67
2022/03/13 01:15:11;;;;;;;16.98;12.57;;;;;;;;;;6240252;23;20011;-67
2022/03/13 01:17:37;;;;;;;14.82;10.98;;;;;;;;;;6240608;23;20099;-67
2022/03/13 01:20:04;;;;;;;13.45;12.07;;;;;;;;;;6240179;23;20026;-70
2022/03/13 01:22:30;;;;;;;14.45;10.82;;;;;;;;;;6208912;23;20456;-68
2022/03/13 01:24:56;;;;;;;13.25;11.80;;;;;;;;;;6210506;23;20032;-68
2022/03/13 01:27:22;;;;;;;12.05;10.38;;;;;;;;;;6210618;23;20452;-68
2022/03/13 01:29:48;;;;;;;12.60;9.52;;;;;;;;;;6208350;23;20013;-68
2022/03/13 01:32:15;;;;;;;14.77;9.98;;;;;;;;;;6208409;23;20044;-69
2022/03/13 01:34:43;;;;;;;11.27;9.93;;;;;;;;;;6206518;23;20012;-68
2022/03/13 01:37:27;;;;;;;10.10;8.65;;;;;;;;;;6207328;23;20023;-68
2022/03/13 01:39:54;;;;;;;15.55;9.88;;;;;;;;;;6207245;23;20495;-68
2022/03/13 01:42:19;;;;;;;12.55;8.90;;;;;;;;;;6207534;23;20015;-68
2022/03/13 01:44:45;;;;;;;10.40;9.25;;;;;;;;;;6209330;23;20040;-69
2022/03/13 01:47:11;;;;;;;10.32;9.25;;;;;;;;;;6210367;23;20445;-67
2022/03/13 01:49:37;;;;;;;9.68;8.73;;;;;;;;;;6210685;23;20008;-67
2022/03/13 01:52:03;;;;;;;12.13;10.82;;;;;;;;;;6208239;23;20023;-68
2022/03/13 01:54:30;;;;;;;12.18;9.48;;;;;;;;;;6209972;23;20009;-68
2022/03/13 01:56:56;;;;;;;11.73;8.85;;;;;;;;;;6209653;23;20401;-69
2022/03/13 01:59:22;;;;;;;14.85;10.18;;;;;;;;;;6210245;23;20019;-67
2022/03/13 02:01:48;;;;;;;12.65;11.07;;;;;;;;;;6209637;23;20099;-68
2022/03/13 02:04:14;;;;;;;11.93;9.93;;;;;;;;;;6210192;23;20016;-67
2022/03/13 02:06:40;;;;;;;8.55;7.75;;;;;;;;;;6212220;23;20012;-67
2022/03/13 02:09:07;;;;;;;6.65;6.03;;;;;;;;;;6212526;23;20095;-68
2022/03/13 02:11:36;;;;;;;6.70;5.45;;;;;;;;;;6212057;23;20031;-68
2022/03/13 02:14:03;;;;;;;9.15;7.63;;;;;;;;;;6211581;23;20008;-68
2022/03/13 02:16:29;;;;;;;12.93;10.02;;;;;;;;;;6211780;23;20020;-68
2022/03/13 02:18:55;;;;;;;9.80;8.73;;;;;;;;;;6211613;23;20023;-69
2022/03/13 02:21:25;;;;;;;15.82;10.77;;;;;;;;;;6212070;23;20024;-68
2022/03/13 02:23:59;;;;;;;11.20;8.50;;;;;;;;;;6238248;23;20514;-69
2022/03/13 02:26:24;;;;;;;10.70;7.25;;;;;;;;;;6243177;23;20097;-68
2022/03/13 02:28:51;;;;;;;12.18;9.23;;;;;;;;;;6242902;23;20012;-67
2022/03/13 02:31:25;;;;;;;12.75;9.50;;;;;;;;;;6215115;23;20100;-67
2022/03/13 02:33:55;;;;;;;10.45;9.27;;;;;;;;;;6242578;23;20194;-69
2022/03/13 02:36:22;;;;;;;10.88;8.93;;;;;;;;;;6190200;23;20102;-68
2022/03/13 02:38:48;;;;;;;13.57;9.90;;;;;;;;;;6242129;23;20091;-69
2022/03/13 02:41:14;;;;;;;11.15;8.85;;;;;;;;;;6242139;23;20051;-70
2022/03/13 02:43:40;;;;;;;10.68;8.07;;;;;;;;;;6241917;23;20004;-68
2022/03/13 02:46:14;;;;;;;11.70;8.25;;;;;;;;;;6241571;23;20348;-68
2022/03/13 02:48:40;;;;;;;7.13;6.43;;;;;;;;;;6241912;23;20012;-69
2022/03/13 02:51:06;;;;;;;11.50;8.27;;;;;;;;;;6214681;23;20061;-69
2022/03/13 02:53:32;;;;;;;9.88;8.88;;;;;;;;;;6241676;23;20008;-69
2022/03/13 02:56:02;;;;;;;19.65;14.23;;;;;;;;;;6214815;23;20012;-69
2022/03/13 02:58:28;;;;;;;19.67;15.05;;;;;;;;;;6241751;23;20012;-70
2022/03/13 03:00:54;;;;;;;25.15;15.32;;;;;;;;;;6241522;23;20016;-68
2022/03/13 03:03:20;;;;;;;26.50;16.38;;;;;;;;;;6190245;23;20031;-69
2022/03/13 03:05:46;;;;;;;25.25;15.95;;;;;;;;;;6241849;23;20016;-69
2022/03/13 03:08:12;;;;;;;23.23;14.43;;;;;;;;;;6214865;23;20086;-68
2022/03/13 03:10:38;;;;;;;18.73;11.68;;;;;;;;;;6241704;23;20118;-69
2022/03/13 03:13:05;;;;;;;20.80;13.85;;;;;;;;;;6241329;23;20016;-68
2022/03/13 03:15:31;;;;;;;18.98;15.02;;;;;;;;;;6190020;23;20103;-68
2022/03/13 03:17:57;;;;;;;19.63;14.23;;;;;;;;;;6190494;23;20035;-70
2022/03/13 03:20:23;;;;;;;17.10;12.38;;;;;;;;;;6214708;23;20093;-70
2022/03/13 03:22:50;;;;;;;17.48;12.63;;;;;;;;;;6214546;23;20020;-68
2022/03/13 03:25:19;;;;;;;15.57;12.43;;;;;;;;;;6212751;23;20027;-68
2022/03/13 03:27:45;;;;;;;16.60;12.27;;;;;;;;;;6241375;23;20074;-68
2022/03/13 03:30:17;;;;;;;13.50;10.63;;;;;;;;;;6241198;23;20020;-67
2022/03/13 03:32:43;;;;;;;14.48;9.30;;;;;;;;;;6214896;23;20023;-69
2022/03/13 03:35:09;;;;;;;21.35;13.32;;;;;;;;;;6241039;23;20012;-69
2022/03/13 03:37:34;;;;;;;20.13;14.52;;;;;;;;;;6214548;23;20154;-69
2022/03/13 03:40:00;;;;;;;22.77;14.48;;;;;;;;;;6241090;23;20099;-69
2022/03/13 03:42:26;;;;;;;18.67;14.60;;;;;;;;;;6241704;23;20023;-68
2022/03/13 03:44:52;;;;;;;26.38;15.63;;;;;;;;;;6241418;23;20008;-68
2022/03/13 03:47:19;;;;;;;13.23;10.40;;;;;;;;;;6241243;23;20502;-69
2022/03/13 03:49:45;;;;;;;16.55;13.20;;;;;;;;;;6215454;23;20012;-70
2022/03/13 03:52:10;;;;;;;14.63;13.07;;;;;;;;;;6214484;23;20065;-70
2022/03/13 03:54:36;;;;;;;16.02;12.07;;;;;;;;;;6214945;23;20455;-68
2022/03/13 03:57:04;;;;;;;13.35;11.80;;;;;;;;;;6241054;23;20027;-68
2022/03/13 03:59:31;;;;;;;15.75;12.10;;;;;;;;;;6240891;23;20015;-70
2022/03/13 04:01:57;;;;;;;19.65;13.93;;;;;;;;;;6239098;23;20020;-69
2022/03/13 04:04:22;;;;;;;15.82;12.15;;;;;;;;;;6242416;23;20107;-69
2022/03/13 04:06:48;;;;;;;23.48;13.95;;;;;;;;;;6191515;23;20397;-70
2022/03/13 04:09:15;;;;;;;13.02;11.52;;;;;;;;;;6243212;23;20016;-68
2022/03/13 04:11:40;;;;;;;20.50;13.68;;;;;;;;;;6243324;23;20329;-69
2022/03/13 04:14:08;;;;;;;25.60;14.57;;;;;;;;;;6241036;23;20008;-69
2022/03/13 04:16:34;;;;;;;20.80;14.20;;;;;;;;;;6240861;23;20035;-68
2022/03/13 04:19:00;;;;;;;21.38;14.30;;;;;;;;;;6214020;23;20483;-69
2022/03/13 04:21:26;;;;;;;16.17;13.43;;;;;;;;;;6213486;23;20066;-68
2022/03/13 04:23:53;;;;;;;15.32;13.07;;;;;;;;;;6213909;23;20016;-69
2022/03/13 04:26:20;;;;;;;18.15;13.18;;;;;;;;;;6240942;23;20340;-68
2022/03/13 04:28:46;;;;;;;20.13;13.70;;;;;;;;;;6189907;23;20016;-68
2022/03/13 04:31:13;;;;;;;24.65;13.77;;;;;;;;;;6241188;23;20012;-70
2022/03/13 04:33:40;;;;;;;17.95;14.30;;;;;;;;;;6189576;23;20008;-68
2022/03/13 04:36:13;;;;;;;15.80;11.32;;;;;;;;;;6214342;23;20016;-68
2022/03/13 04:38:39;;;;;;;16.20;13.05;;;;;;;;;;6241357;23;20087;-69
2022/03/13 04:41:05;;;;;;;14.13;11.77;;;;;;;;;;6240350;23;20027;-69
2022/03/13 04:43:31;;;;;;;18.50;13.98;;;;;;;;;;6240887;23;20012;-68
2022/03/13 04:45:57;;;;;;;17.10;12.43;;;;;;;;;;6214050;23;20016;-69
2022/03/13 04:48:23;;;;;;;8.27;7.20;;;;;;;;;;6215278;23;20432;-68
2022/03/13 04:50:49;;;;;;;9.02;5.57;;;;;;;;;;6214304;23;20161;-69
2022/03/13 04:53:15;;;;;;;10.00;8.35;;;;;;;;;;6239273;23;20016;-68
2022/03/13 04:55:42;;;;;;;6.28;5.68;;;;;;;;;;6214486;23;20444;-69
2022/03/13 04:58:12;;;;;;;5.88;5.47;;;;;;;;;;6240153;23;20018;-69
2022/03/13 05:00:38;;;;;;;7.53;6.82;;;;;;;;;;6238929;23;20428;-70
2022/03/13 05:03:05;;;;;;;8.38;7.68;;;;;;;;;;6240462;23;20058;-70
2022/03/13 05:05:34;;;;;;;6.93;5.88;;;;;;;;;;6240371;23;20015;-69
2022/03/13 05:08:04;;;;;;;6.30;5.80;;;;;;;;;;6213655;23;20042;-69
2022/03/13 05:10:35;;;;;;;4.10;3.85;;;;;;;;;;6240899;23;20065;-69
2022/03/13 05:13:02;;;;;;;2.70;2.60;;;;;;;;;;6213663;23;20507;-69
2022/03/13 05:15:28;;;;;;;3.85;3.55;;;;;;;;;;6241374;23;20012;-69
2022/03/13 05:17:54;;;;;;;4.15;2.85;;;;;;;;;;6213679;23;20102;-71
2022/03/13 05:20:20;;;;;;;2.80;2.60;;;;;;;;;;6239071;23;20024;-69
2022/03/13 05:22:46;;;;;;;3.10;2.90;;;;;;;;;;6239980;23;20024;-70
2022/03/13 05:25:14;;;;;;;4.35;4.03;;;;;;;;;;6240338;23;20008;-70
2022/03/13 05:27:41;;;;;;;5.63;5.05;;;;;;;;;;6240249;23;20031;-70
2022/03/13 05:30:07;;;;;;;5.35;4.85;;;;;;;;;;6240283;23;20641;-71
2022/03/13 05:32:35;;;;;;;5.25;4.75;;;;;;;;;;6213589;23;20087;-69
2022/03/13 05:35:01;;;;;;;4.55;4.15;;;;;;;;;;6240466;23;20016;-70
2022/03/13 05:37:29;;;;;;;4.75;4.35;;;;;;;;;;6241871;23;20093;-70
2022/03/13 05:39:55;;;;;;;3.50;3.30;;;;;;;;;;6242366;23;20517;-70
2022/03/13 05:42:25;;;;;;;4.90;3.97;;;;;;;;;;6242857;23;20471;-69
2022/03/13 05:44:51;;;;;;;4.55;4.25;;;;;;;;;;6237562;23;20008;-70
2022/03/13 05:47:18;;;;;;;3.80;3.50;;;;;;;;;;6240542;23;20016;-70
2022/03/13 05:49:44;;;;;;;4.85;4.50;;;;;;;;;;6214957;23;20095;-70
2022/03/13 05:52:13;;;;;;;3.25;3.03;;;;;;;;;;6240944;23;20359;-70
2022/03/13 05:54:39;;;;;;;4.38;4.07;;;;;;;;;;6241316;23;20103;-69
2022/03/13 05:57:06;;;;;;;3.83;3.58;;;;;;;;;;6214662;23;20039;-69
2022/03/13 05:59:35;;;;;;;3.40;3.10;;;;;;;;;;6215155;23;20012;-69
2022/03/13 06:02:04;;;;;;;4.38;3.97;;;;;;;;;;6240896;23;20404;-70
2022/03/13 06:04:36;;;;;;;4.72;4.32;;;;;;;;;;6241495;23;20398;-69
2022/03/13 06:07:05;;;;;;;4.55;4.15;;;;;;;;;;6214568;23;20016;-70
2022/03/13 06:09:31;;;;;;;4.40;4.10;;;;;;;;;;6241678;23;20015;-69
2022/03/13 06:11:58;;;;;;;4.47;4.07;;;;;;;;;;6241108;23;20012;-70
2022/03/13 06:14:24;;;;;;;3.63;3.42;;;;;;;;;;6214240;23;20077;-69
2022/03/13 06:16:50;;;;;;;6.07;4.60;;;;;;;;;;6214827;23;20016;-69
2022/03/13 06:19:16;;;;;;;5.05;4.65;;;;;;;;;;6214605;23;20066;-70
2022/03/13 06:21:42;;;;;;;6.40;5.60;;;;;;;;;;6164538;23;20430;-70
2022/03/13 06:24:08;;;;;;;5.63;5.22;;;;;;;;;;6214493;23;20026;-70
2022/03/13 06:26:34;;;;;;;4.95;4.55;;;;;;;;;;6214792;23;20094;-69
2022/03/13 06:29:01;;;;;;;7.53;5.82;;;;;;;;;;6241544;23;20519;-71
2022/03/13 06:31:26;;;;;;;5.07;4.65;;;;;;;;;;6215109;23;20121;-70
2022/03/13 06:33:52;;;;;;;3.95;3.65;;;;;;;;;;6215341;23;20014;-70
2022/03/13 06:36:19;;;;;;;5.15;4.75;;;;;;;;;;6241694;23;20576;-70
2022/03/13 06:38:45;;;;;;;7.43;6.40;;;;;;;;;;6189940;23;20008;-69
2022/03/13 06:41:11;;;;;;;4.80;4.32;;;;;;;;;;6242115;23;20020;-69
2022/03/13 06:43:37;;;;;;;4.68;4.38;;;;;;;;;;6241763;23;20012;-70
2022/03/13 06:46:03;;;;;;;6.78;6.25;;;;;;;;;;6241016;23;20011;-70
2022/03/13 06:48:31;;;;;;;7.28;6.65;;;;;;;;;;6213808;23;20054;-70
2022/03/13 06:50:58;;;;;;;4.43;3.45;;;;;;;;;;6242546;23;20512;-70
2022/03/13 06:53:24;;;;;;;2.83;2.63;;;;;;;;;;6243218;23;20065;-71
2022/03/13 06:55:54;;;;;;;3.08;2.75;;;;;;;;;;6191280;23;20062;-70
2022/03/13 06:58:20;;;;;;;6.70;6.00;;;;;;;;;;6216713;23;20012;-70
2022/03/13 07:00:47;;;;;;;3.75;3.55;;;;;;;;;;6242227;23;20028;-68
2022/03/13 07:03:15;;;;;;;2.63;2.53;;;;;;;;;;6241746;23;20008;-68
2022/03/13 07:05:42;;;;;;;7.97;5.53;;;;;;;;;;6241582;23;20142;-69
2022/03/13 07:08:08;;;;;;;6.05;5.55;;;;;;;;;;6215234;23;20011;-70
2022/03/13 07:10:34;;;;;;;6.00;5.50;;;;;;;;;;6242195;23;20106;-70
2022/03/13 07:13:01;;;;;;;3.90;3.67;;;;;;;;;;6241939;23;20480;-70
2022/03/13 07:15:27;;;;;;;5.65;5.25;;;;;;;;;;6241853;23;20012;-70
2022/03/13 07:17:53;;;;;;;6.88;6.18;;;;;;;;;;6241509;23;20011;-75
2022/03/13 07:20:19;;;;;;;4.32;3.97;;;;;;;;;;6240432;23;20020;-69
2022/03/13 07:22:45;;;;;;;5.47;4.97;;;;;;;;;;6213748;23;20146;-69
2022/03/13 07:25:12;;;;;;;5.03;3.42;;;;;;;;;;6240219;23;20063;-69
2022/03/13 07:27:38;;;;;;;6.07;5.47;;;;;;;;;;6214298;23;20043;-70
2022/03/13 07:30:05;;;;;;;6.10;5.50;;;;;;;;;;6214468;23;20087;-69
2022/03/13 07:32:30;;;;;;;4.32;3.20;;;;;;;;;;6242194;23;20087;-68
2022/03/13 07:34:56;;;;;;;5.32;4.93;;;;;;;;;;6216242;23;20031;-69
2022/03/13 07:37:22;;;;;;;5.93;5.32;;;;;;;;;;6242953;23;20016;-69
2022/03/13 07:39:48;;;;;;;4.60;4.25;;;;;;;;;;6191061;23;20107;-69
2022/03/13 07:42:15;;;;;;;4.25;3.88;;;;;;;;;;6215131;23;20076;-69
2022/03/13 07:44:41;;;;;;;8.95;5.75;;;;;;;;;;6242177;23;20018;-69
2022/03/13 07:47:07;;;;;;;4.30;4.00;;;;;;;;;;6241750;23;20082;-68
2022/03/13 07:49:34;;;;;;;2.72;2.53;;;;;;;;;;6242819;23;20012;-68
2022/03/13 07:52:01;;;;;;;6.10;5.15;;;;;;;;;;6215351;23;20012;-69
2022/03/13 07:54:26;;;;;;;5.18;4.78;;;;;;;;;;6241731;23;20065;-69
2022/03/13 07:56:52;;;;;;;6.60;5.57;;;;;;;;;;6215974;23;20015;-70
2022/03/13 07:59:18;;;;;;;6.18;4.78;;;;;;;;;;6240941;23;20016;-67
2022/03/13 08:01:45;;;;;;;8.05;6.55;;;;;;;;;;6239764;23;20472;-67
2022/03/13 08:04:11;;;;;;;7.18;6.47;;;;;;;;;;6214141;23;20012;-67
2022/03/13 08:06:39;;;;;;;4.70;4.03;;;;;;;;;;6187884;23;20065;-68
2022/03/13 08:09:05;;;;;;;4.40;4.07;;;;;;;;;;6212200;23;20182;-67
2022/03/13 08:11:34;;;;;;;11.15;4.95;;;;;;;;;;6211441;23;20099;-67
2022/03/13 08:14:02;;;;;;;4.50;4.00;;;;;;;;;;6237271;23;20055;-67
2022/03/13 08:16:28;;;;;;;5.50;5.07;;;;;;;;;;6213473;23;20485;-68
2022/03/13 08:18:54;;;;;;;4.40;4.00;;;;;;;;;;6239535;23;20035;-68
2022/03/13 08:21:20;;;;;;;7.63;5.78;;;;;;;;;;6213239;23;20020;-67
2022/03/13 08:23:46;;;;;;;4.90;4.50;;;;;;;;;;6238803;23;20023;-67
2022/03/13 08:26:12;;;;;;;8.05;6.93;;;;;;;;;;6211818;23;20039;-67
2022/03/13 08:28:41;;;;;;;4.70;4.30;;;;;;;;;;6239343;23;20014;-72
2022/03/13 08:31:07;;;;;;;13.80;8.20;;;;;;;;;;6238882;23;20015;-71
2022/03/13 08:33:33;;;;;;;12.98;8.45;;;;;;;;;;6238303;23;20016;-68
2022/03/13 08:35:59;;;;;;;5.82;5.15;;;;;;;;;;6239640;23;20038;-71
2022/03/13 08:38:28;;;;;;;8.45;6.07;;;;;;;;;;6240176;23;20061;-69
2022/03/13 08:40:54;;;;;;;14.18;7.18;;;;;;;;;;6240742;23;20019;-69
2022/03/13 08:43:20;;;;;;;6.63;6.00;;;;;;;;;;6240795;23;20012;-68
2022/03/13 08:45:47;;;;;;;8.18;7.13;;;;;;;;;;6239504;23;20027;-69
2022/03/13 08:48:13;;;;;;;4.15;3.85;;;;;;;;;;6240091;23;20008;-68
2022/03/13 08:50:39;;;;;;;7.85;6.13;;;;;;;;;;6241092;23;20094;-68
2022/03/13 08:53:05;;;;;;;3.80;3.50;;;;;;;;;;6240192;23;20032;-68
2022/03/13 08:55:31;;;;;;;5.65;4.75;;;;;;;;;;6240759;23;20478;-68
2022/03/13 08:57:57;;;;;;;5.07;4.32;;;;;;;;;;6240271;23;20019;-68
2022/03/13 09:00:24;;;;;;;7.40;6.70;;;;;;;;;;6240874;23;20045;-68
2022/03/13 09:02:50;;;;;;;4.25;3.92;;;;;;;;;;6240320;23;20012;-69
2022/03/13 09:05:16;;;;;;;5.88;5.40;;;;;;;;;;6240534;23;20042;-69
2022/03/13 09:07:42;;;;;;;5.60;5.13;;;;;;;;;;6187974;23;20016;-69
2022/03/13 09:10:09;;;;;;;7.03;6.28;;;;;;;;;;6240807;23;20450;-69
2022/03/13 09:12:35;;;;;;;6.63;4.47;;;;;;;;;;6240676;23;20016;-69
2022/03/13 09:15:01;;;;;;;6.38;5.72;;;;;;;;;;6239201;23;20098;-67
2022/03/13 09:17:29;;;;;;;7.75;6.47;;;;;;;;;;6240347;23;20417;-69
2022/03/13 09:19:56;;;;;;;6.68;5.65;;;;;;;;;;6240403;23;20016;-69
2022/03/13 09:22:25;;;;;;;6.88;5.68;;;;;;;;;;6237838;23;20015;-67
2022/03/13 09:24:51;;;;;;;4.28;3.85;;;;;;;;;;6196966;23;20021;-67
2022/03/13 09:27:17;;;;;;;6.60;5.07;;;;;;;;;;6210547;23;20130;-67
2022/03/13 09:29:43;;;;;;;7.63;6.35;;;;;;;;;;6208566;23;20089;-69
2022/03/13 09:32:09;;;;;;;4.68;4.30;;;;;;;;;;6183772;23;20013;-69
2022/03/13 09:34:34;;;;;;;5.30;4.88;;;;;;;;;;6210862;23;20044;-69
2022/03/13 09:37:00;;;;;;;4.07;3.78;;;;;;;;;;6210044;23;20444;-69
2022/03/13 09:39:26;;;;;;;5.53;5.00;;;;;;;;;;6210441;23;20016;-70
2022/03/13 09:41:53;;;;;;;8.02;7.25;;;;;;;;;;6210919;23;20052;-67
2022/03/13 09:44:19;;;;;;;4.97;4.57;;;;;;;;;;6211453;23;20005;-67
2022/03/13 09:46:46;;;;;;;8.85;5.90;;;;;;;;;;6210606;23;20012;-68
2022/03/13 09:49:16;;;;;;;5.15;4.72;;;;;;;;;;6210028;23;20013;-68
2022/03/13 09:51:42;;;;;;;6.75;6.00;;;;;;;;;;6210860;23;20111;-68
2022/03/13 09:54:08;;;;;;;6.55;5.80;;;;;;;;;;6209993;23;20009;-68
2022/03/13 09:56:35;;;;;;;5.30;4.90;;;;;;;;;;6159023;23;20044;-68
2022/03/13 09:59:02;;;;;;;5.22;4.72;;;;;;;;;;6158111;23;20356;-68
2022/03/13 10:01:29;;;;;;;6.05;5.45;;;;;;;;;;6209636;23;20131;-68
2022/03/13 10:03:55;;;;;;;10.80;5.55;;;;;;;;;;6209487;23;20043;-67
2022/03/13 10:06:21;;;;;;;4.53;4.13;;;;;;;;;;6209331;23;20023;-68
2022/03/13 10:08:48;;;;;;;6.00;5.40;;;;;;;;;;6183538;23;20031;-68
2022/03/13 10:11:15;;;;;;;5.97;5.20;;;;;;;;;;6181893;23;20017;-68
2022/03/13 10:13:42;;;;;;;8.35;6.60;;;;;;;;;;6208508;23;20014;-68
2022/03/13 10:16:08;;;;;;;4.50;3.70;;;;;;;;;;6208358;23;20009;-69
2022/03/13 10:18:34;;;;;;;5.05;4.55;;;;;;;;;;6157448;23;20020;-70
2022/03/13 10:21:09;;;;;;;5.38;4.88;;;;;;;;;;6206583;23;20460;-66
2022/03/13 10:23:36;;;;;;;6.93;4.88;;;;;;;;;;6182432;23;20025;-66
2022/03/13 10:26:04;;;;;;;3.88;3.58;;;;;;;;;;6183434;23;20542;-67
2022/03/13 10:28:34;;;;;;;6.80;5.72;;;;;;;;;;6209657;23;20333;-66
2022/03/13 10:31:00;;;;;;;7.05;5.85;;;;;;;;;;6209993;23;20042;-66
2022/03/13 10:33:27;;;;;;;5.20;4.60;;;;;;;;;;6183843;23;20012;-66
2022/03/13 10:36:09;;;;;;;6.13;5.53;;;;;;;;;;6210784;23;20016;-66
2022/03/13 10:38:35;;;;;;;8.02;6.07;;;;;;;;;;6209067;23;20051;-67
2022/03/13 10:41:05;;;;;;;9.30;6.93;;;;;;;;;;6209927;23;20151;-66
2022/03/13 10:43:32;;;;;;;6.25;5.68;;;;;;;;;;6184402;23;20015;-66
2022/03/13 10:45:58;;;;;;;5.43;4.95;;;;;;;;;;6184117;23;20108;-67
2022/03/13 10:48:27;;;;;;;5.15;4.22;;;;;;;;;;6209382;23;20041;-66
2022/03/13 10:50:54;;;;;;;8.50;7.10;;;;;;;;;;6209643;23;20460;-66
2022/03/13 10:53:20;;;;;;;5.45;4.38;;;;;;;;;;6210070;23;20036;-66
2022/03/13 10:56:03;;;;;;;6.10;5.60;;;;;;;;;;6211331;23;20024;-66
2022/03/13 10:58:30;;;;;;;7.95;6.32;;;;;;;;;;6210553;23;20044;-67
2022/03/13 11:01:06;;;;;;;8.48;7.53;;;;;;;;;;6184869;23;20132;-66
2022/03/13 11:03:33;;;;;;;9.32;4.90;;;;;;;;;;6211326;23;20013;-67
2022/03/13 11:06:00;;;;;;;11.15;5.35;;;;;;;;;;6211353;23;20013;-69
2022/03/13 11:08:26;;;;;;;8.05;5.72;;;;;;;;;;6210923;23;20012;-66
2022/03/13 11:10:53;;;;;;;6.20;5.60;;;;;;;;;;6211733;23;20016;-67
2022/03/13 11:13:21;;;;;;;7.82;6.95;;;;;;;;;;6211051;23;20017;-67
2022/03/13 11:15:47;;;;;;;7.38;6.78;;;;;;;;;;6213995;23;20123;-66
2022/03/13 11:18:17;;;;;;;7.38;6.70;;;;;;;;;;6186085;23;20061;-66
2022/03/13 11:20:43;;;;;;;9.93;6.30;;;;;;;;;;6214223;23;20411;-67
2022/03/13 11:23:10;;;;;;;9.05;5.07;;;;;;;;;;6213517;23;20090;-67
2022/03/13 11:25:36;;;;;;;3.42;3.22;;;;;;;;;;6211895;23;20019;-68
2022/03/13 11:28:03;;;;;;;5.70;5.20;;;;;;;;;;6210812;23;20536;-66
2022/03/13 11:30:30;;;;;;;5.97;5.38;;;;;;;;;;6211052;23;20016;-67
2022/03/13 11:32:57;;;;;;;4.25;3.95;;;;;;;;;;6211044;23;20044;-66
2022/03/13 11:35:24;;;;;;;5.93;5.40;;;;;;;;;;6184085;23;20095;-67
2022/03/13 11:37:51;;;;;;;8.02;7.22;;;;;;;;;;6211001;23;20020;-66
2022/03/13 11:40:38;;;;;;;6.72;6.05;;;;;;;;;;6158746;23;20356;-66
2022/03/13 11:43:07;;;;;;;9.65;6.57;;;;;;;;;;6210119;23;20067;-66
2022/03/13 11:45:34;;;;;;;5.80;5.28;;;;;;;;;;6184326;23;20546;-66
2022/03/13 11:48:19;;;;;;;4.88;4.53;;;;;;;;;;6210538;23;20012;-66
2022/03/13 11:50:49;;;;;;;4.82;4.43;;;;;;;;;;6159119;23;20016;-66
2022/03/13 11:53:19;;;;;;;6.18;5.68;;;;;;;;;;6185018;23;20070;-67
2022/03/13 11:55:59;;;;;;;5.55;4.57;;;;;;;;;;6184475;23;20019;-68
2022/03/13 11:58:43;;;;;;;3.80;3.38;;;;;;;;;;6210544;23;20110;-67
2022/03/13 12:01:10;;;;;;;6.25;5.65;;;;;;;;;;6210321;23;20113;-69
2022/03/13 12:03:36;;;;;;;4.78;4.03;;;;;;;;;;6210425;23;20016;-67
2022/03/13 12:06:03;;;;;;;4.50;4.10;;;;;;;;;;6210458;23;20043;-68
2022/03/13 12:08:48;;;;;;;5.22;4.10;;;;;;;;;;6210798;23;20055;-67
2022/03/13 12:11:35;;;;;;;5.88;5.28;;;;;;;;;;6184446;23;20013;-68
2022/03/13 12:14:01;;;;;;;6.53;4.65;;;;;;;;;;6210145;23;20019;-68
2022/03/13 12:16:27;;;;;;;4.80;4.40;;;;;;;;;;6210907;23;20422;-68
2022/03/13 12:19:02;;;;;;;3.47;3.28;;;;;;;;;;6210163;23;20044;-68
2022/03/13 12:21:28;;;;;;;6.35;5.80;;;;;;;;;;6207574;23;20372;-68
2022/03/13 12:23:56;;;;;;;6.18;5.68;;;;;;;;;;6182089;23;20016;-67
2022/03/13 12:26:27;;;;;;;8.98;5.15;;;;;;;;;;6182881;23;20012;-67
2022/03/13 12:28:57;;;;;;;4.97;4.57;;;;;;;;;;6183094;23;20012;-68
2022/03/13 12:31:24;;;;;;;4.30;3.47;;;;;;;;;;6208582;23;20044;-68
2022/03/13 12:33:50;;;;;;;4.00;3.50;;;;;;;;;;6210068;23;20019;-68
2022/03/13 12:36:17;;;;;;;3.63;3.35;;;;;;;;;;6183873;23;20016;-67
2022/03/13 12:38:44;;;;;;;4.15;3.80;;;;;;;;;;6184389;23;20013;-67
2022/03/13 12:41:11;;;;;;;6.00;5.40;;;;;;;;;;6208964;23;20027;-67
2022/03/13 12:43:53;;;;;;;3.40;3.20;;;;;;;;;;6210430;23;20008;-67
2022/03/13 12:46:21;;;;;;;6.15;3.30;;;;;;;;;;6182503;23;20016;-67
2022/03/13 12:48:55;;;;;;;5.20;4.45;;;;;;;;;;6209937;23;20015;-66
2022/03/13 12:51:49;;;;;;;5.25;4.75;;;;;;;;;;6183331;23;20481;-66
2022/03/13 12:54:22;;;;;;;4.43;4.00;;;;;;;;;;6179541;23;20475;-67
2022/03/13 12:56:49;;;;;;;5.80;3.58;;;;;;;;;;6208415;23;20024;-67
2022/03/13 12:59:34;;;;;;;4.88;4.40;;;;;;;;;;6209059;23;20095;-67
2022/03/13 13:02:21;;;;;;;2.47;2.28;;;;;;;;;;6183341;23;20027;-67
2022/03/13 13:04:51;;;;;;;8.73;4.35;;;;;;;;;;6183765;23;20016;-68
2022/03/13 13:07:17;;;;;;;6.63;3.08;;;;;;;;;;6158186;23;20013;-67
2022/03/13 13:09:44;;;;;;;4.80;4.10;;;;;;;;;;6210100;23;20067;-67
2022/03/13 13:12:11;;;;;;;4.68;3.97;;;;;;;;;;6209968;23;20023;-67
2022/03/13 13:14:37;;;;;;;5.88;4.90;;;;;;;;;;6183698;23;20428;-68
2022/03/13 13:17:07;;;;;;;4.93;4.43;;;;;;;;;;6209919;23;20016;-68
2022/03/13 13:19:40;;;;;;;7.90;5.72;;;;;;;;;;6183363;23;20101;-68
2022/03/13 13:22:07;;;;;;;4.95;4.40;;;;;;;;;;6207740;23;20035;-68
2022/03/13 13:24:36;;;;;;;7.00;4.05;;;;;;;;;;6210072;23;20459;-67
2022/03/13 13:27:02;;;;;;;3.85;3.53;;;;;;;;;;6184452;23;20078;-68
2022/03/13 13:29:32;;;;;;;7.07;3.78;;;;;;;;;;6208013;23;20031;-68
2022/03/13 13:32:18;;;;;;;4.72;3.92;;;;;;;;;;6158578;23;20730;-68
2022/03/13 13:35:02;;;;;;;4.55;4.13;;;;;;;;;;6207844;23;20008;-68
2022/03/13 13:37:29;;;;;;;4.70;4.15;;;;;;;;;;6208227;23;20012;-68
2022/03/13 13:40:08;;;;;;;4.80;4.40;;;;;;;;;;6210011;23;20009;-67
2022/03/13 13:42:37;;;;;;;4.93;4.53;;;;;;;;;;6210077;23;20055;-68
2022/03/13 13:45:23;;;;;;;4.77;4.30;;;;;;;;;;6209699;23;20070;-67
2022/03/13 13:47:49;;;;;;;5.72;3.95;;;;;;;;;;6183655;23;20028;-66
2022/03/13 13:50:16;;;;;;;4.57;4.18;;;;;;;;;;6209832;23;20066;-66
2022/03/13 13:52:42;;;;;;;7.93;4.43;;;;;;;;;;6158545;23;20016;-67
2022/03/13 13:55:21;;;;;;;6.88;3.47;;;;;;;;;;6209419;23;20024;-68
2022/03/13 13:57:47;;;;;;;4.68;3.92;;;;;;;;;;6183826;23;20175;-67
2022/03/13 14:00:28;;;;;;;6.00;5.50;;;;;;;;;;6206345;23;20040;-66
2022/03/13 14:02:54;;;;;;;;;;;;;;;;;;6212052;23;20016;-67
2022/03/13 14:05:21;;;;;;;3.97;3.58;;;;;;;;;;6211471;23;19930;-67
2022/03/13 14:07:47;;;;;;;4.82;4.43;;;;;;;;;;6211986;23;20008;-67
2022/03/13 14:10:13;;;;;;;4.07;3.67;;;;;;;;;;6209868;23;20019;-67
2022/03/13 14:12:39;;;;;;;4.13;3.72;;;;;;;;;;6158958;23;20043;-68
2022/03/13 14:15:06;;;;;;;4.50;4.10;;;;;;;;;;6209854;23;20012;-68
2022/03/13 14:17:32;;;;;;;4.03;3.05;;;;;;;;;;6209497;23;20020;-68
2022/03/13 14:19:58;;;;;;;4.07;3.70;;;;;;;;;;6209941;23;20329;-68
2022/03/13 14:22:24;;;;;;;5.97;4.53;;;;;;;;;;6210149;23;20024;-67
2022/03/13 14:24:50;;;;;;;3.35;3.15;;;;;;;;;;6184345;23;20036;-68
2022/03/13 14:27:16;;;;;;;4.55;3.60;;;;;;;;;;6160562;23;20020;-67
2022/03/13 14:29:43;;;;;;;7.30;4.47;;;;;;;;;;6212839;23;20059;-67
2022/03/13 14:32:09;;;;;;;2.88;2.70;;;;;;;;;;6212077;23;20012;-67
2022/03/13 14:34:35;;;;;;;5.70;4.85;;;;;;;;;;6185993;23;20015;-68
2022/03/13 14:37:02;;;;;;;5.28;4.78;;;;;;;;;;6210471;23;20020;-67
2022/03/13 14:39:28;;;;;;;6.30;3.72;;;;;;;;;;6211057;23;20015;-67